Redlake, Minnesota
Current Conditions -  °F | °C
As of 9:33 PM on Friday 24 Oct 2014 (Local Time) from KBJI Reporting Station
Clear Clear  
Wind Chill: 59°   Ceiling: Unl
Heat Index: 59°   Visibility: 10mi
Dew Point: 32°   Wind: 20mph
Humidity: 36%   Direction: 280°W
Pressure: 29.82"   Gusts: 25mph
Location:  47.88°N, 95.02°W
Report Text: KBJI 250233Z AUTO 28017G22KT 10SM CLR 15/00 A2982 RMK AO2 T01490000
Loading
Personal Weather Stations






























Interactive Weather Map
Tropical Storm Tracking
New forecast layout! Learn more

10-Day Weather Forecast

Advertisements
Track Severe Weather on mobile